Terminal Aerodrome Forecast
Issued by NWS Cleveland, OH

Home | Current Version | Previous Version | Graphics & Text | Print | Product List | Glossary On
Versions: 1 2 3 4 5 6 7 8 9 10 11 12 13 14 15 16 17 18 19 20 21 22 23 24 25 26
246
FTUS41 KCLE 262105 AAA
TAFMFD
TAF AMD
KMFD 262105Z 2621/2718 02010KT P6SM OVC012
     FM271000 04012KT P6SM SCT012 OVC025
     FM271500 06012KT P6SM OVC040=

USA.gov is the U.S. government's official web portal to all federal, state and local government web resources and services.